createdAt,value
2022-09-06T00:00:46.619Z,98.27
2022-09-06T00:01:46.603Z,98.57
2022-09-06T00:02:46.907Z,98.47
2022-09-06T00:03:46.683Z,98.27
2022-09-06T00:04:46.559Z,98.57
2022-09-06T00:05:46.542Z,98.67
2022-09-06T00:06:46.532Z,98.67
2022-09-06T00:07:46.520Z,98.67
2022-09-06T00:08:46.507Z,98.57
2022-09-06T00:09:46.489Z,98.71
2022-09-06T00:10:46.471Z,98.82
2022-09-06T00:11:46.459Z,98.92
2022-09-06T00:12:46.452Z,98.77
2022-09-06T00:13:46.429Z,98.67
2022-09-06T00:14:46.420Z,98.82
2022-09-06T00:15:46.471Z,98.61
2022-09-06T00:16:46.395Z,98.51
2022-09-06T00:17:46.387Z,98.51
2022-09-06T00:18:46.370Z,98.51
2022-09-06T00:19:46.347Z,98.71
2022-09-06T00:20:46.342Z,98.71
2022-09-06T00:21:46.321Z,98.47
2022-09-06T00:22:46.310Z,98.51
2022-09-06T00:23:46.303Z,98.71
2022-09-06T00:24:46.288Z,98.71
2022-09-06T00:25:46.274Z,98.71
2022-09-06T00:26:46.261Z,98.51
2022-09-06T00:27:46.243Z,98.41
2022-09-06T00:28:46.228Z,98.61
2022-09-06T00:29:46.212Z,98.51
2022-09-06T00:30:46.248Z,98.31
2022-09-06T00:31:46.192Z,98.21
2022-09-06T00:32:46.181Z,98.31
2022-09-06T00:33:46.166Z,98.61
2022-09-06T00:34:46.157Z,98.61
2022-09-06T00:35:46.137Z,98.46
2022-09-06T00:36:46.132Z,98.46
2022-09-06T00:37:46.108Z,98.56
2022-09-06T00:38:46.097Z,98.76
2022-09-06T00:39:46.110Z,98.71
2022-09-06T00:40:46.068Z,98.76
2022-09-06T00:41:46.047Z,99.07
2022-09-06T00:42:46.047Z,99.11
2022-09-06T00:43:46.027Z,99.07
2022-09-06T00:44:46.023Z,99.16
2022-09-06T00:45:46.003Z,99.16
2022-09-06T00:46:45.990Z,99.07
2022-09-06T00:47:45.966Z,98.96
2022-09-06T00:48:45.962Z,99.07
2022-09-06T00:49:45.942Z,99.27
2022-09-06T00:50:45.931Z,99.16
2022-09-06T00:51:45.918Z,98.96
2022-09-06T00:52:45.906Z,99.07
2022-09-06T00:53:45.895Z,99.07
2022-09-06T00:54:45.883Z,99.07
2022-09-06T00:55:45.860Z,99.07
2022-09-06T00:56:45.851Z,99.21
2022-09-06T00:57:45.832Z,99.32
2022-09-06T00:58:45.825Z,99.21
2022-09-06T00:59:45.815Z,99.32
2022-09-06T01:00:45.798Z,99.32
2022-09-06T01:01:45.877Z,99.41
2022-09-06T01:02:45.905Z,99.52
2022-09-06T01:03:45.751Z,99.41
2022-09-06T01:04:45.749Z,99.41
2022-09-06T01:05:45.728Z,99.41
2022-09-06T01:06:45.716Z,99.41
2022-09-06T01:07:45.701Z,99.41
2022-09-06T01:08:45.689Z,99.41
2022-09-06T01:09:45.673Z,99.41
2022-09-06T01:10:45.661Z,99.41
2022-09-06T01:11:45.651Z,99.52
2022-09-06T01:12:45.635Z,99.41
2022-09-06T01:13:45.617Z,99.32
2022-09-06T01:14:45.607Z,99.32
2022-09-06T01:15:45.638Z,99.32
2022-09-06T01:16:45.586Z,99.21
2022-09-06T01:17:45.565Z,99.21
2022-09-06T01:18:45.557Z,99.01
2022-09-06T01:19:45.537Z,99.21
2022-09-06T01:20:45.527Z,99.21
2022-09-06T01:21:45.512Z,99.21
2022-09-06T01:22:45.497Z,99.21
2022-09-06T01:23:45.492Z,99.21
2022-09-06T01:24:45.478Z,99.11
2022-09-06T01:25:45.466Z,99.01
2022-09-06T01:26:45.446Z,99.01
2022-09-06T01:27:45.426Z,99.32
2022-09-06T01:28:45.418Z,99.41
2022-09-06T01:29:45.402Z,99.52
2022-09-06T01:30:45.447Z,99.52
2022-09-06T01:31:45.380Z,99.52
2022-09-06T01:32:45.370Z,99.56
2022-09-06T01:33:45.349Z,99.52
2022-09-06T01:34:45.343Z,99.52
2022-09-06T01:35:45.318Z,99.41
2022-09-06T01:37:06.269Z,99.32
2022-09-06T01:37:46.315Z,99.32
2022-09-06T01:38:45.280Z,99.21
2022-09-06T01:39:45.272Z,99.21
2022-09-06T01:40:45.254Z,99.32
2022-09-06T01:41:45.235Z,99.56
2022-09-06T01:42:45.228Z,99.52
2022-09-06T01:43:45.215Z,99.41
2022-09-06T01:44:45.202Z,99.46
2022-09-06T01:45:45.267Z,99.41
2022-09-06T01:46:45.172Z,99.46
2022-09-06T01:47:45.155Z,99.56
2022-09-06T01:48:45.146Z,99.66
2022-09-06T01:49:45.129Z,99.77
2022-09-06T01:50:45.117Z,99.77
2022-09-06T01:51:45.110Z,99.66
2022-09-06T01:52:45.094Z,99.46
2022-09-06T01:53:45.086Z,99.46
2022-09-06T01:54:45.071Z,99.66
2022-09-06T01:55:45.053Z,99.66
2022-09-06T01:56:45.037Z,99.61
2022-09-06T01:57:45.024Z,99.66
2022-09-06T01:58:45.007Z,99.72
2022-09-06T01:59:44.997Z,99.66
2022-09-06T02:00:44.985Z,99.66
2022-09-06T02:01:45.039Z,99.81
2022-09-06T02:02:45.029Z,99.77
2022-09-06T02:03:44.943Z,99.56
2022-09-06T02:04:44.936Z,99.56
2022-09-06T02:05:44.915Z,99.66
2022-09-06T02:06:44.911Z,99.81
2022-09-06T02:07:44.889Z,99.71
2022-09-06T02:08:44.874Z,99.66
2022-09-06T02:09:44.858Z,99.77
2022-09-06T02:10:44.849Z,99.91
2022-09-06T02:11:44.835Z,99.97
2022-09-06T02:12:44.828Z,99.97
2022-09-06T02:13:44.810Z,99.99
2022-09-06T02:14:44.799Z,99.97
2022-09-06T02:15:44.781Z,99.87
2022-09-06T02:16:44.821Z,99.91
2022-09-06T02:17:44.749Z,99.87
2022-09-06T02:18:44.745Z,99.81
2022-09-06T02:19:44.734Z,99.81
2022-09-06T02:20:44.718Z,99.91
2022-09-06T02:21:44.702Z,99.97
2022-09-06T02:22:44.690Z,99.99
2022-09-06T02:23:44.670Z,99.99
2022-09-06T02:24:44.658Z,99.99
2022-09-06T02:25:44.640Z,99.99
2022-09-06T02:26:44.633Z,99.99
2022-09-06T02:27:44.620Z,99.99
2022-09-06T02:28:44.607Z,99.99
2022-09-06T02:29:44.593Z,99.91
2022-09-06T02:30:44.664Z,99.81
2022-09-06T02:31:44.559Z,99.91
2022-09-06T02:32:44.553Z,99.99
2022-09-06T02:33:44.535Z,99.99
2022-09-06T02:34:44.523Z,99.99
2022-09-06T02:35:44.509Z,99.91
2022-09-06T02:36:44.496Z,99.99
2022-09-06T02:37:44.482Z,99.99
2022-09-06T02:38:44.469Z,99.99
2022-09-06T02:39:44.499Z,99.99
2022-09-06T02:40:44.444Z,99.99
2022-09-06T02:41:44.437Z,99.91
2022-09-06T02:42:44.423Z,99.91
2022-09-06T02:43:44.403Z,99.81
2022-09-06T02:44:44.396Z,99.81
2022-09-06T02:45:44.455Z,99.87
2022-09-06T02:46:44.364Z,99.99
2022-09-06T02:47:44.345Z,99.99
2022-09-06T02:48:44.332Z,99.99
2022-09-06T02:49:44.316Z,99.99
2022-09-06T02:50:44.309Z,99.99
2022-09-06T02:51:44.290Z,99.99
2022-09-06T02:52:44.279Z,99.99
2022-09-06T02:53:44.265Z,99.99
2022-09-06T02:54:44.253Z,99.99
2022-09-06T02:55:44.240Z,99.99
2022-09-06T02:56:45.521Z,99.99
2022-09-06T02:57:44.211Z,99.99
2022-09-06T02:58:44.202Z,99.99
2022-09-06T02:59:44.183Z,99.98
2022-09-06T03:00:44.182Z,99.99
2022-09-06T03:01:44.224Z,99.87
2022-09-06T03:02:44.207Z,99.92
2022-09-06T03:03:44.134Z,99.87
2022-09-06T03:04:44.123Z,99.87
2022-09-06T03:05:44.105Z,99.87
2022-09-06T03:06:44.095Z,99.87
2022-09-06T03:07:44.077Z,99.77
2022-09-06T03:08:44.067Z,99.77
2022-09-06T03:09:44.051Z,99.98
2022-09-06T03:10:44.048Z,99.99
2022-09-06T03:11:44.017Z,99.99
2022-09-06T03:12:44.010Z,99.98
2022-09-06T03:13:43.991Z,99.99
2022-09-06T03:14:43.981Z,99.99
2022-09-06T03:15:43.967Z,99.99
2022-09-06T03:16:44.005Z,99.99
2022-09-06T03:17:43.936Z,99.99
2022-09-06T03:18:43.926Z,99.99
2022-09-06T03:19:43.915Z,99.99
2022-09-06T03:20:43.903Z,99.99
2022-09-06T03:21:43.888Z,99.99
2022-09-06T03:22:43.878Z,99.99
2022-09-06T03:23:43.858Z,99.99
2022-09-06T03:24:43.852Z,99.99
2022-09-06T03:25:43.832Z,99.99
2022-09-06T03:26:43.825Z,99.99
2022-09-06T03:27:43.806Z,99.99
2022-09-06T03:28:43.795Z,99.99
2022-09-06T03:29:43.772Z,99.99
2022-09-06T03:30:43.852Z,99.99
2022-09-06T03:31:43.751Z,99.99
2022-09-06T03:32:43.741Z,99.99
2022-09-06T03:33:43.726Z,99.99
2022-09-06T03:34:43.715Z,99.99
2022-09-06T03:35:43.696Z,99.99
2022-09-06T03:36:43.683Z,99.99
2022-09-06T03:37:43.664Z,99.99
2022-09-06T03:38:43.657Z,99.99
2022-09-06T03:39:43.739Z,99.99
2022-09-06T03:40:43.631Z,99.99
2022-09-06T03:41:43.613Z,99.99
2022-09-06T03:42:43.602Z,99.99
2022-09-06T03:43:43.589Z,99.99
2022-09-06T03:44:43.583Z,99.99
2022-09-06T03:45:43.626Z,99.99
2022-09-06T03:46:43.553Z,99.99
2022-09-06T03:47:43.539Z,99.99
2022-09-06T03:48:43.522Z,99.99
2022-09-06T03:49:43.505Z,99.99
2022-09-06T03:50:43.498Z,99.99
2022-09-06T03:51:43.478Z,99.99
2022-09-06T03:52:43.469Z,99.99
2022-09-06T03:53:43.447Z,99.99
2022-09-06T03:54:43.438Z,99.99
2022-09-06T03:55:43.425Z,99.99
2022-09-06T03:56:43.415Z,99.99
2022-09-06T03:57:43.399Z,99.99
2022-09-06T03:58:43.393Z,99.99
2022-09-06T03:59:43.372Z,99.99
2022-09-06T04:00:43.365Z,99.99
2022-09-06T04:01:43.482Z,99.99
2022-09-06T04:02:43.370Z,99.99
2022-09-06T04:03:43.325Z,99.99
2022-09-06T04:04:43.301Z,99.99
2022-09-06T04:05:43.290Z,99.99
2022-09-06T04:06:43.273Z,99.99
2022-09-06T04:07:43.267Z,99.99
2022-09-06T04:08:43.249Z,99.99
2022-09-06T04:09:43.241Z,99.99
2022-09-06T04:10:43.218Z,99.99
2022-09-06T04:11:45.116Z,99.99
2022-09-06T04:12:43.191Z,99.99
2022-09-06T04:13:43.182Z,99.99
2022-09-06T04:14:43.166Z,99.99
2022-09-06T04:15:43.159Z,99.99
2022-09-06T04:16:43.212Z,99.99
2022-09-06T04:17:43.130Z,99.99
2022-09-06T04:18:43.111Z,99.99
2022-09-06T04:19:43.101Z,99.99
2022-09-06T04:20:43.082Z,99.99
2022-09-06T04:21:43.072Z,99.99
2022-09-06T04:22:43.060Z,99.99
2022-09-06T04:23:43.048Z,99.99
2022-09-06T04:24:43.037Z,99.99
2022-09-06T04:25:43.023Z,99.99
2022-09-06T04:26:43.001Z,99.99
2022-09-06T04:27:42.995Z,99.99
2022-09-06T04:28:42.978Z,99.99
2022-09-06T04:29:42.962Z,99.99
2022-09-06T04:30:42.950Z,99.99
2022-09-06T04:31:42.992Z,99.99
2022-09-06T04:32:42.928Z,99.99
2022-09-06T04:33:42.914Z,99.99
2022-09-06T04:34:42.897Z,99.99
2022-09-06T04:35:42.883Z,99.99
2022-09-06T04:36:47.703Z,99.99
2022-09-06T04:37:42.857Z,99.99
2022-09-06T04:38:42.839Z,99.99
2022-09-06T04:39:42.880Z,99.99
2022-09-06T04:40:42.818Z,99.99
2022-09-06T04:41:42.811Z,99.99
2022-09-06T04:42:42.783Z,99.99
2022-09-06T04:43:42.773Z,99.99
2022-09-06T04:44:42.768Z,99.99
2022-09-06T04:45:42.799Z,99.99
2022-09-06T04:46:42.742Z,99.99
2022-09-06T04:47:42.724Z,99.99
2022-09-06T04:48:42.712Z,99.99
2022-09-06T04:49:42.699Z,99.99
2022-09-06T04:50:42.680Z,99.99
2022-09-06T04:51:42.669Z,99.99
2022-09-06T04:52:42.652Z,99.99
2022-09-06T04:53:42.644Z,99.99
2022-09-06T04:54:42.625Z,99.99
2022-09-06T04:55:42.609Z,99.99
2022-09-06T04:56:42.597Z,99.99
2022-09-06T04:57:46.578Z,99.99
2022-09-06T04:58:42.567Z,99.99
2022-09-06T04:59:42.556Z,99.99
2022-09-06T05:00:42.582Z,99.99
2022-09-06T05:01:42.535Z,99.99
2022-09-06T05:02:42.583Z,99.99
2022-09-06T05:03:42.498Z,99.99
2022-09-06T05:04:42.483Z,99.99
2022-09-06T05:05:42.470Z,99.99
2022-09-06T05:06:42.456Z,99.99
2022-09-06T05:07:42.451Z,99.99
2022-09-06T05:08:42.432Z,99.99
2022-09-06T05:09:42.424Z,99.99
2022-09-06T05:10:42.407Z,99.99
2022-09-06T05:11:42.397Z,99.99
2022-09-06T05:12:44.384Z,99.99
2022-09-06T05:13:42.364Z,99.99
2022-09-06T05:14:42.344Z,99.99
2022-09-06T05:15:42.338Z,99.99
2022-09-06T05:16:42.409Z,99.99
2022-09-06T05:17:42.317Z,99.99
2022-09-06T05:18:42.296Z,99.99
2022-09-06T05:19:42.279Z,99.99
2022-09-06T05:20:42.260Z,99.99
2022-09-06T05:21:42.253Z,99.99
2022-09-06T05:22:42.239Z,99.99
2022-09-06T05:23:42.228Z,99.99
2022-09-06T05:24:42.211Z,99.99
2022-09-06T05:25:42.200Z,99.99
2022-09-06T05:26:42.185Z,99.99
2022-09-06T05:27:42.168Z,99.99
2022-09-06T05:28:42.154Z,99.99
2022-09-06T05:29:42.147Z,99.99
2022-09-06T05:30:42.131Z,99.99
2022-09-06T05:31:42.163Z,99.99
2022-09-06T05:32:42.113Z,99.99
2022-09-06T05:33:42.093Z,99.99
2022-09-06T05:34:42.076Z,99.99
2022-09-06T05:35:42.068Z,99.99
2022-09-06T05:36:42.048Z,99.99
2022-09-06T05:37:42.033Z,99.99
2022-09-06T05:38:42.021Z,99.99
2022-09-06T05:39:42.055Z,99.99
2022-09-06T05:40:41.995Z,99.99
2022-09-06T05:41:41.994Z,99.99
2022-09-06T05:42:41.970Z,99.99
2022-09-06T05:43:41.954Z,99.99
2022-09-06T05:44:41.937Z,99.99
2022-09-06T05:45:42.006Z,99.99
2022-09-06T05:46:41.916Z,99.99
2022-09-06T05:47:41.910Z,99.99
2022-09-06T05:48:41.889Z,99.99
2022-09-06T05:49:41.878Z,99.99
2022-09-06T05:50:41.860Z,99.99
2022-09-06T05:51:41.849Z,99.99
2022-09-06T05:52:41.831Z,99.99
2022-09-06T05:53:41.818Z,99.87
2022-09-06T05:54:41.807Z,99.87
2022-09-06T05:55:43.104Z,99.67
2022-09-06T05:56:41.781Z,99.72
2022-09-06T05:57:41.771Z,99.77
2022-09-06T05:58:41.756Z,99.66
2022-09-06T05:59:41.735Z,99.66
2022-09-06T06:00:41.723Z,99.62
2022-09-06T06:01:41.793Z,99.62
2022-09-06T06:02:41.755Z,99.62
2022-09-06T06:03:41.686Z,99.52
2022-09-06T06:04:41.674Z,99.41
2022-09-06T06:05:41.660Z,99.46
2022-09-06T06:06:41.643Z,99.46
2022-09-06T06:07:41.631Z,99.46
2022-09-06T06:08:41.609Z,99.36
2022-09-06T06:09:41.611Z,99.36
2022-09-06T06:10:41.582Z,99.41
2022-09-06T06:11:41.579Z,99.32
2022-09-06T06:12:41.563Z,99.21
2022-09-06T06:13:41.557Z,99.21
2022-09-06T06:14:41.541Z,99.27
2022-09-06T06:15:41.521Z,99.22
2022-09-06T06:16:41.630Z,99.16
2022-09-06T06:17:41.497Z,99.16
2022-09-06T06:18:41.475Z,99.07
2022-09-06T06:19:41.468Z,99.21
2022-09-06T06:20:41.448Z,99.21
2022-09-06T06:21:41.437Z,99.16
2022-09-06T06:22:41.424Z,99.11
2022-09-06T06:23:41.420Z,99.21
2022-09-06T06:24:41.398Z,99.21
2022-09-06T06:25:41.389Z,99.16
2022-09-06T06:26:41.383Z,99.16
2022-09-06T06:27:41.369Z,99.16
2022-09-06T06:28:41.339Z,99.16
2022-09-06T06:29:41.334Z,99.07
2022-09-06T06:30:41.312Z,99.11
2022-09-06T06:31:41.335Z,99.11
2022-09-06T06:32:41.289Z,99.11
2022-09-06T06:33:41.279Z,99.11
2022-09-06T06:34:41.259Z,99.07
2022-09-06T06:35:41.251Z,99.07
2022-09-06T06:36:41.234Z,98.96
2022-09-06T06:37:41.220Z,98.82
2022-09-06T06:38:41.211Z,98.97
2022-09-06T06:39:41.258Z,98.97
2022-09-06T06:40:41.182Z,98.61
2022-09-06T06:41:41.172Z,98.67
2022-09-06T06:42:41.151Z,98.82
2022-09-06T06:43:41.141Z,98.68
2022-09-06T06:44:41.122Z,98.98
2022-09-06T06:45:41.136Z,98.73
2022-09-06T06:46:41.098Z,99.34
2022-09-06T06:47:41.142Z,98.59
2022-09-06T06:48:41.074Z,99.85
2022-09-06T06:49:41.064Z,99.99
2022-09-06T06:50:41.048Z,99.71
2022-09-06T06:51:41.037Z,99.60
2022-09-06T06:52:41.018Z,98.95
2022-09-06T06:53:41.011Z,99.15
2022-09-06T06:54:40.992Z,99.01
2022-09-06T06:55:40.979Z,99.05
2022-09-06T06:56:40.966Z,98.75
2022-09-06T06:57:40.960Z,99.26
2022-09-06T06:58:40.936Z,98.91
2022-09-06T06:59:40.925Z,98.86
2022-09-06T07:00:40.973Z,98.21
2022-09-06T07:01:41.021Z,98.57
2022-09-06T07:02:40.877Z,97.92
2022-09-06T07:03:40.871Z,98.47
2022-09-06T07:04:40.858Z,97.17
2022-09-06T07:07:41.109Z,96.82
2022-09-06T07:08:40.810Z,94.21
2022-09-06T07:10:40.784Z,96.11
2022-09-06T07:11:40.762Z,97.11
2022-09-06T07:12:40.746Z,97.76
2022-09-06T07:13:40.740Z,98.16
2022-09-06T07:14:40.729Z,97.91
2022-09-06T07:15:40.719Z,98.16
2022-09-06T07:16:40.758Z,97.96
2022-09-06T07:17:40.689Z,98.16
2022-09-06T07:18:40.670Z,98.52
2022-09-06T07:21:40.637Z,95.67
2022-09-06T07:22:40.659Z,95.12
2022-09-06T07:24:40.585Z,93.68
2022-09-06T07:25:40.575Z,92.54
2022-09-06T07:26:40.882Z,91.89
2022-09-06T07:27:48.706Z,92.69
2022-09-06T07:28:41.561Z,95.19
2022-09-06T07:29:40.529Z,94.09
2022-09-06T07:30:40.512Z,93.54
2022-09-06T07:32:40.488Z,90.72
2022-09-06T07:33:40.475Z,93.43
2022-09-06T07:34:40.458Z,93.77
2022-09-06T07:35:40.449Z,95.62
2022-09-06T07:36:40.425Z,96.27
2022-09-06T07:37:40.440Z,93.43
2022-09-06T07:38:40.399Z,93.98
2022-09-06T07:39:40.491Z,95.09
2022-09-06T07:40:40.373Z,91.19
2022-09-06T07:41:40.368Z,91.05
2022-09-06T07:42:40.346Z,93.55
2022-09-06T07:43:40.347Z,93.35
2022-09-06T07:44:40.326Z,91.60
2022-09-06T07:45:40.316Z,89.61
2022-09-06T07:46:40.356Z,89.70
2022-09-06T07:48:40.266Z,88.85
2022-09-06T07:49:40.286Z,88.01
2022-09-06T07:50:48.874Z,89.51
2022-09-06T07:51:41.259Z,89.70
2022-09-06T07:53:40.209Z,86.91
2022-09-06T07:54:40.195Z,86.41
2022-09-06T07:55:40.184Z,85.57
2022-09-06T07:56:40.166Z,85.63
2022-09-06T07:57:40.158Z,84.63
2022-09-06T07:58:40.139Z,88.72
2022-09-06T07:59:42.954Z,83.99
2022-09-06T08:00:40.131Z,86.94
2022-09-06T08:01:40.183Z,83.81
2022-09-06T08:02:40.083Z,83.23
2022-09-06T08:03:40.074Z,83.19
2022-09-06T08:04:40.055Z,81.96
2022-09-06T08:07:40.453Z,78.40
2022-09-06T08:09:40.003Z,78.17
2022-09-06T08:10:39.986Z,78.72
2022-09-06T08:11:39.971Z,74.76
2022-09-06T08:12:39.957Z,76.01
2022-09-06T08:13:39.944Z,75.71
2022-09-06T08:14:39.934Z,73.46
2022-09-06T08:15:41.724Z,72.79
2022-09-06T08:16:39.973Z,70.38
2022-09-06T08:17:39.887Z,70.81
2022-09-06T08:18:39.873Z,69.42
2022-09-06T08:19:39.858Z,70.87
2022-09-06T08:20:39.850Z,67.91
2022-09-06T08:21:39.841Z,65.01
2022-09-06T08:22:39.823Z,65.53
2022-09-06T08:23:39.876Z,66.16
2022-09-06T08:24:39.829Z,68.80
2022-09-06T08:25:39.784Z,70.08
2022-09-06T08:26:39.941Z,70.54
2022-09-06T08:27:39.821Z,68.76
2022-09-06T08:28:39.851Z,70.41
2022-09-06T08:29:39.796Z,65.73
2022-09-06T08:30:40.302Z,66.59
2022-09-06T08:31:39.977Z,66.85
2022-09-06T08:32:39.883Z,68.57
2022-09-06T08:33:39.861Z,68.86
2022-09-06T08:34:39.915Z,65.73
2022-09-06T08:35:39.664Z,66.42
2022-09-06T08:36:39.701Z,67.48
2022-09-06T08:37:39.712Z,67.74
2022-09-06T08:38:39.650Z,67.44
2022-09-06T08:39:39.629Z,65.24
2022-09-06T08:40:39.597Z,66.00
2022-09-06T08:41:39.592Z,64.29
2022-09-06T08:42:39.571Z,64.88
2022-09-06T08:43:39.580Z,64.19
2022-09-06T08:44:55.201Z,63.50
2022-09-06T08:45:40.559Z,64.36
2022-09-06T08:46:39.586Z,63.31
2022-09-06T08:47:39.499Z,62.06
2022-09-06T08:48:39.664Z,62.95
2022-09-06T08:49:39.474Z,60.85
2022-09-06T08:50:39.465Z,60.82
2022-09-06T08:51:39.452Z,62.37
2022-09-06T08:52:49.342Z,60.92
2022-09-06T08:53:40.464Z,61.67
2022-09-06T08:54:39.546Z,61.08
2022-09-06T08:55:39.416Z,61.83
2022-09-06T08:56:39.400Z,62.85
2022-09-06T08:57:40.433Z,61.48
2022-09-06T08:58:39.364Z,60.23
2022-09-06T08:59:39.498Z,58.19
2022-09-06T09:00:39.380Z,61.15
2022-09-06T09:01:39.385Z,60.91
2022-09-06T09:02:39.321Z,59.72
2022-09-06T09:03:39.309Z,61.18
2022-09-06T09:04:39.298Z,61.77
2022-09-06T09:05:39.280Z,58.71
2022-09-06T09:06:39.273Z,61.33
2022-09-06T09:07:39.257Z,61.63
2022-09-06T09:08:39.246Z,59.66
2022-09-06T09:09:39.233Z,64.59
2022-09-06T09:10:39.293Z,59.88
2022-09-06T09:11:39.201Z,61.56
2022-09-06T09:12:39.197Z,60.57
2022-09-06T09:13:39.195Z,64.55
2022-09-06T09:14:39.168Z,64.78
2022-09-06T09:15:40.498Z,62.31
2022-09-06T09:16:39.229Z,63.00
2022-09-06T09:17:39.131Z,63.00
2022-09-06T09:18:39.122Z,63.99
2022-09-06T09:19:39.106Z,62.28
2022-09-06T09:20:39.099Z,63.96
2022-09-06T09:21:39.081Z,64.55
2022-09-06T09:22:39.075Z,62.90
2022-09-06T09:23:39.050Z,64.71
2022-09-06T09:24:39.041Z,64.42
2022-09-06T09:25:39.023Z,66.39
2022-09-06T09:26:39.022Z,65.41
2022-09-06T09:27:39.009Z,64.12
2022-09-06T09:28:38.998Z,64.81
2022-09-06T09:29:39.257Z,63.89
2022-09-06T09:31:39.073Z,64.42
2022-09-06T09:32:38.957Z,64.51
2022-09-06T09:33:38.941Z,65.60
2022-09-06T09:34:38.949Z,65.53
2022-09-06T09:35:38.901Z,66.03
2022-09-06T09:36:38.946Z,64.25
2022-09-06T09:37:46.365Z,66.55
2022-09-06T09:38:39.884Z,65.40
2022-09-06T09:39:38.893Z,64.31
2022-09-06T09:40:38.835Z,67.21
2022-09-06T09:41:38.847Z,65.56
2022-09-06T09:42:38.815Z,66.25
2022-09-06T09:43:38.803Z,66.16
2022-09-06T09:44:38.799Z,69.76
2022-09-06T09:45:38.778Z,66.88
2022-09-06T09:46:38.820Z,70.25
2022-09-06T09:47:38.759Z,70.75
2022-09-06T09:48:38.741Z,69.98
2022-09-06T09:49:38.726Z,68.01
2022-09-06T09:50:38.719Z,70.22
2022-09-06T09:51:38.699Z,69.85
2022-09-06T09:52:38.684Z,69.46
2022-09-06T09:53:38.669Z,75.41
2022-09-06T09:54:38.659Z,73.13
2022-09-06T09:55:38.643Z,72.93
2022-09-06T09:56:38.640Z,75.97
2022-09-06T09:57:38.617Z,74.58
2022-09-06T09:58:38.605Z,72.56
2022-09-06T09:59:38.597Z,70.25
2022-09-06T10:00:38.653Z,67.77
2022-09-06T10:01:38.673Z,66.88
2022-09-06T10:02:38.565Z,66.39
2022-09-06T10:04:42.683Z,67.38
2022-09-06T10:05:38.519Z,68.57
2022-09-06T10:07:38.500Z,69.06
2022-09-06T10:08:38.488Z,69.16
2022-09-06T10:09:38.478Z,69.56
2022-09-06T10:10:38.667Z,69.95
2022-09-06T10:11:38.448Z,70.31
2022-09-06T10:12:38.440Z,66.39
2022-09-06T10:13:38.444Z,67.44
2022-09-06T10:14:38.425Z,67.97
2022-09-06T10:15:38.459Z,66.85
2022-09-06T10:16:38.390Z,64.05
2022-09-06T10:17:38.381Z,66.13
2022-09-06T10:18:38.359Z,66.29
2022-09-06T10:19:38.348Z,65.63
2022-09-06T10:20:38.331Z,64.84
2022-09-06T10:21:38.322Z,64.75
2022-09-06T10:22:38.304Z,61.85
2022-09-06T10:24:38.284Z,61.93
2022-09-06T10:25:38.272Z,61.36
2022-09-06T10:26:38.267Z,61.85
2022-09-06T10:27:45.693Z,61.36
2022-09-06T10:28:39.249Z,63.73
2022-09-06T10:29:38.221Z,63.21
2022-09-06T10:30:38.201Z,63.24
2022-09-06T10:31:38.271Z,60.80
2022-09-06T10:32:38.204Z,63.17
2022-09-06T10:33:38.187Z,63.40
2022-09-06T10:34:38.153Z,63.89
2022-09-06T10:35:38.136Z,64.02
2022-09-06T10:36:38.137Z,63.16
2022-09-06T10:37:38.119Z,64.94
2022-09-06T10:38:38.099Z,64.48
2022-09-06T10:39:38.169Z,65.00
2022-09-06T10:40:38.079Z,65.20
2022-09-06T10:41:38.063Z,65.99
2022-09-06T10:42:38.048Z,67.58
2022-09-06T10:43:38.041Z,66.98
2022-09-06T10:44:38.025Z,65.50
2022-09-06T10:45:38.010Z,67.61
2022-09-06T10:46:38.072Z,67.61
2022-09-06T10:47:38.007Z,67.61
2022-09-06T10:48:37.978Z,68.10
2022-09-06T10:49:37.959Z,65.06
2022-09-06T10:50:37.949Z,65.43
2022-09-06T10:51:38.064Z,65.36
2022-09-06T10:52:38.073Z,66.55
2022-09-06T10:53:37.900Z,66.65
2022-09-06T10:54:37.894Z,67.44
2022-09-06T10:55:37.879Z,66.85
2022-09-06T10:56:37.874Z,66.95
2022-09-06T10:59:38.611Z,66.39
2022-09-06T11:00:37.813Z,66.25
2022-09-06T11:01:37.944Z,68.46
2022-09-06T11:02:38.198Z,69.16
2022-09-06T11:06:37.745Z,68.63
2022-09-06T11:07:37.735Z,69.42
2022-09-06T11:09:37.697Z,66.28
2022-09-06T11:10:37.690Z,65.39
2022-09-06T11:11:37.675Z,66.09
2022-09-06T11:12:37.665Z,68.17
2022-09-06T11:13:37.652Z,67.31
2022-09-06T11:14:37.646Z,68.40
2022-09-06T11:15:37.713Z,67.21
2022-09-06T11:16:37.610Z,67.84
2022-09-06T11:17:37.599Z,67.14
2022-09-06T11:18:37.591Z,66.85
2022-09-06T11:19:37.571Z,69.62
2022-09-06T11:20:37.558Z,68.73
2022-09-06T11:21:37.540Z,67.05
2022-09-06T11:22:37.532Z,67.94
2022-09-06T11:23:37.510Z,69.72
2022-09-06T11:24:37.507Z,70.02
2022-09-06T11:25:37.489Z,69.49
2022-09-06T11:26:37.478Z,70.02
2022-09-06T11:27:37.466Z,70.62
2022-09-06T11:28:37.456Z,69.89
2022-09-06T11:29:37.441Z,68.99
2022-09-06T11:30:37.430Z,70.48
2022-09-06T11:32:37.407Z,67.90
2022-09-06T11:33:37.388Z,67.38
2022-09-06T11:34:37.437Z,67.77
2022-09-06T11:35:37.479Z,69.42
2022-09-06T11:36:37.347Z,67.44
2022-09-06T11:37:37.332Z,68.24
2022-09-06T11:38:37.334Z,69.79
2022-09-06T11:40:37.302Z,67.58
2022-09-06T11:41:37.285Z,68.33
2022-09-06T11:42:37.273Z,64.97
2022-09-06T11:43:37.255Z,64.87
2022-09-06T11:44:37.244Z,65.56
2022-09-06T11:45:37.226Z,65.04
2022-09-06T11:46:37.287Z,63.62
2022-09-06T11:47:37.206Z,62.60
2022-09-06T11:48:37.195Z,62.12
2022-09-06T11:49:37.211Z,61.29
2022-09-06T11:50:37.172Z,62.48
2022-09-06T11:51:37.149Z,61.16
2022-09-06T11:52:37.143Z,62.62
2022-09-06T11:53:37.125Z,61.80
2022-09-06T11:54:37.119Z,60.46
2022-09-06T11:55:37.102Z,59.92
2022-09-06T11:56:37.104Z,54.04
2022-09-06T11:57:37.078Z,52.76
2022-09-06T11:58:37.066Z,52.22
2022-09-06T11:59:37.045Z,50.90
2022-09-06T12:00:37.087Z,50.07
2022-09-06T12:01:37.036Z,47.05
2022-09-06T12:02:37.154Z,48.28
2022-09-06T12:04:36.990Z,50.93
2022-09-06T12:05:36.977Z,51.71
2022-09-06T12:06:36.989Z,51.29
2022-09-06T12:07:36.950Z,51.25
2022-09-06T12:08:36.937Z,48.41
2022-09-06T12:09:36.920Z,52.93
2022-09-06T12:10:36.914Z,52.76
2022-09-06T12:11:36.898Z,53.35
2022-09-06T12:12:36.889Z,52.42
2022-09-06T12:13:36.875Z,48.93
2022-09-06T12:14:36.866Z,50.70
2022-09-06T12:15:36.930Z,47.44
2022-09-06T12:43:32.352Z,49.63
2022-09-06T12:44:32.335Z,51.83
2022-09-06T12:45:32.328Z,49.75
2022-09-06T12:46:32.398Z,48.16
2022-09-06T12:47:32.299Z,47.85
2022-09-06T12:48:32.288Z,47.87
2022-09-06T12:49:32.274Z,45.53
2022-09-06T12:50:32.256Z,48.19
2022-09-06T13:06:48.801Z,49.38
2022-09-06T13:08:11.343Z,49.31
2022-09-06T13:09:11.328Z,50.81
2022-09-06T13:10:11.319Z,50.32
2022-09-06T13:11:11.298Z,52.18
2022-09-06T13:12:11.293Z,50.90
2022-09-06T13:13:11.274Z,48.57
2022-09-06T13:14:14.234Z,50.83
2022-09-06T13:15:11.244Z,50.63
2022-09-06T13:16:11.283Z,50.34
2022-09-06T13:17:11.218Z,49.26
2022-09-06T13:18:11.210Z,51.32
2022-09-06T13:19:11.198Z,50.54
2022-09-06T13:20:11.193Z,51.32
2022-09-06T13:21:11.168Z,51.22
2022-09-06T13:22:11.304Z,51.62
2022-09-06T13:23:11.147Z,52.50
2022-09-06T13:24:11.131Z,51.62
2022-09-06T13:25:11.118Z,51.35
2022-09-06T13:26:11.108Z,49.58
2022-09-06T13:27:11.094Z,50.07
2022-09-06T13:28:11.088Z,51.45
2022-09-06T13:29:11.070Z,51.74
2022-09-06T13:30:11.058Z,49.68
2022-09-06T13:31:11.140Z,52.33
2022-09-06T13:32:11.033Z,48.99
2022-09-06T13:33:11.016Z,49.28
2022-09-06T13:34:11.005Z,49.97
2022-09-06T13:35:10.993Z,50.66
2022-09-06T13:36:10.983Z,51.74
2022-09-06T13:37:10.964Z,52.11
2022-09-06T13:38:10.956Z,51.15
2022-09-06T13:39:10.944Z,50.04
2022-09-06T13:40:10.965Z,49.38
2022-09-06T13:41:13.749Z,51.32
2022-09-06T13:42:10.904Z,51.54
2022-09-06T13:43:10.896Z,51.15
2022-09-06T13:44:10.886Z,47.91
2022-09-06T13:45:10.869Z,50.39
2022-09-06T13:46:10.935Z,50.29
2022-09-06T13:47:10.843Z,50.88
2022-09-06T13:48:28.368Z,50.61
2022-09-06T13:49:11.844Z,50.61
2022-09-06T13:50:10.806Z,49.92
2022-09-06T13:51:10.792Z,49.33
2022-09-06T13:52:10.787Z,48.86
2022-09-06T13:53:10.762Z,49.43
2022-09-06T13:54:10.757Z,50.42
2022-09-06T13:55:10.736Z,51.89
2022-09-06T13:56:10.727Z,51.79
2022-09-06T13:57:10.720Z,52.48
2022-09-06T13:58:10.704Z,49.13
2022-09-06T13:59:10.695Z,50.09
2022-09-06T14:00:10.674Z,50.85